Latest Coastal Weather Observations for Arlington Reef

IDQ60701

Issued at 8:01 pm EST Sunday 22 January 2017 (issued every 10 minutes, with the page automatically refreshed every 10 minutes)

About coastal observations | Map of coastal stations | Coastal observations for QLD | Marine services | Other Formats
Station Details ID: 200879 Name: ARLINGTON REEF Lat: -16.72 Lon: 146.11 Height: 0.0 m
Data from the previous 72 hours. | See also: Recent months at Arlington Reef
Date/Time
EST
Temp
°C
Wind Pressure Rain since
9am
mm
Weather Cloud Vis
km
Sea
Height
m
Swell
Dir  Spd
kts
Gust
kts
hPa Trend Height
m
Period
s
Dir
22/07:30pm - E 10 12 1009.4 - - - - - - - - -
22/07:00pm - E 10 11 1009.1 - - - - - - - - -
22/06:30pm - E 11 13 1008.7 - - - - - - - - -
22/06:00pm - ESE 12 14 1008.4 - - - - - - - - -
22/05:30pm - ESE 11 13 1007.9 - - - - - - - - -
22/05:00pm - ESE 11 13 1007.5 - - - - - - - - -
22/04:30pm - ESE 11 14 1007.4 - - - - - - - - -
22/04:00pm - E 10 12 1007.5 - - - - - - - - -
22/03:30pm - ESE 10 12 1007.7 - - - - - - - - -
22/03:00pm - E 10 12 1008.0 - - - - - - - - -
22/02:30pm - E 8 9 1008.2 - - - - - - - - -
22/02:00pm - ESE 7 9 1008.5 - - - - - - - - -
22/01:30pm - ESE 7 9 1008.8 - - - - - - - - -
22/01:00pm - E 6 8 1009.1 - - - - - - - - -
22/12:30pm - E 7 9 1009.1 - - - - - - - - -
22/12:00pm - E 7 8 1009.3 - - - - - - - - -
22/11:30am - E 6 8 1009.5 - - - - - - - - -
22/11:00am - E 5 7 1009.8 - - - - - - - - -
22/10:30am - ENE 5 7 1009.9 - - - - - - - - -
22/10:00am - E 6 9 1009.8 - - - - - - - - -
22/09:30am - ENE 5 7 1009.7 - - - - - - - - -
22/09:00am - ENE 4 6 1009.7 - - - - - - - - -
22/08:30am - ENE 3 4 1009.5 - - - - - - - - -
22/08:00am - ENE 4 5 1009.4 - - - - - - - - -
22/07:30am - E 2 3 1009.2 - - - - - - - - -
22/07:00am - NE 1 2 1009.1 - - - - - - - - -
22/06:30am - CALM 0 0 1008.8 - - - - - - - - -
22/06:00am - CALM 0 1 1008.3 - - - - - - - - -
22/05:30am - NE 1 2 1007.7 - - - - - - - - -
22/05:00am - NNE 3 4 1007.4 - - - - - - - - -
22/04:30am - NNE 2 4 1007.3 - - - - - - - - -
22/04:00am - N 3 5 1007.2 - - - - - - - - -
22/03:30am - NNE 3 5 1007.1 - - - - - - - - -
22/03:00am - NNE 2 3 1007.3 - - - - - - - - -
22/02:30am - NE 3 4 1007.3 - - - - - - - - -
22/02:00am - NE 3 4 1007.6 - - - - - - - - -
22/01:30am - CALM 0 0 1007.9 - - - - - - - - -
22/01:00am - NNW 3 5 1008.3 - - - - - - - - -
22/12:30am - NNE 4 5 1008.6 - - - - - - - - -
22/12:00am - NNE 3 4 1009.1 - - - - - - - - -
 
Date/Time
EST
Temp
°C
Wind Pressure Rain since
9am
mm
Weather Cloud Vis
km
Sea
Height
m
Swell
Dir  Spd
kts
Gust
kts
hPa Trend Height
m
Period
s
Dir
21/11:30pm - N 2 4 1009.5 - - - - - - - - -
21/11:00pm - N 2 4 1009.8 - - - - - - - - -
21/10:30pm - N 5 7 1009.8 - - - - - - - - -
21/10:00pm - N 6 8 1009.5 - - - - - - - - -
21/09:30pm - N 8 10 1009.1 - - - - - - - - -
21/09:00pm - N 7 9 1008.6 - - - - - - - - -
21/08:30pm - NNW 6 8 1008.2 - - - - - - - - -
21/08:00pm - N 6 8 1007.9 - - - - - - - - -
21/07:30pm - N 4 6 1007.7 - - - - - - - - -
21/07:00pm - NNE 6 8 1007.1 - - - - - - - - -
21/06:30pm - NNE 7 9 1006.6 - - - - - - - - -
21/06:00pm - NNE 7 9 1006.5 - - - - - - - - -
21/05:30pm - NNE 6 8 1006.1 - - - - - - - - -
21/05:00pm - NNE 6 9 1005.7 - - - - - - - - -
21/04:30pm - NNE 6 8 1005.5 - - - - - - - - -
21/04:00pm - NNE 5 6 1005.7 - - - - - - - - -
21/03:30pm - NNE 5 7 1005.9 - - - - - - - - -
21/03:00pm - NNE 5 7 1006.3 - - - - - - - - -
21/02:30pm - NNE 5 7 1006.7 - - - - - - - - -
21/02:00pm - N 6 8 1007.2 - - - - - - - - -
21/01:30pm - NNE 7 8 1007.5 - - - - - - - - -
21/01:00pm - N 7 9 1007.7 - - - - - - - - -
21/12:30pm - N 7 9 1008.0 - - - - - - - - -
21/12:00pm - N 7 9 1008.4 - - - - - - - - -
21/11:30am - N 7 8 1008.8 - - - - - - - - -
21/11:00am - NNW 7 8 1009.1 - - - - - - - - -
21/10:30am - NNW 6 8 1009.4 - - - - - - - - -
21/10:00am - NNW 6 8 1009.7 - - - - - - - - -
21/09:30am - NNW 6 8 1009.8 - - - - - - - - -
21/09:00am - NW 5 7 1009.8 - - - - - - - - -
21/08:30am - NW 5 6 1009.7 - - - - - - - - -
21/08:00am - WNW 5 6 1009.6 - - - - - - - - -
21/07:30am - WNW 4 5 1009.4 - - - - - - - - -
21/07:00am - WNW 4 4 1009.3 - - - - - - - - -
21/06:30am - WNW 4 5 1009.3 - - - - - - - - -
21/06:00am - W 1 4 1009.0 - - - - - - - - -
21/05:30am - W 3 5 1008.4 - - - - - - - - -
21/05:00am - W 5 7 1008.1 - - - - - - - - -
21/04:30am - W 4 6 1007.5 - - - - - - - - -
21/04:00am - WNW 7 9 1007.5 - - - - - - - - -
21/03:30am - NW 4 6 1007.5 - - - - - - - - -
21/03:00am - NNW 4 5 1007.0 - - - - - - - - -
21/02:30am - NW 4 5 1007.2 - - - - - - - - -
21/02:00am - NW 3 4 1007.2 - - - - - - - - -
21/01:30am - WSW 3 3 1007.6 - - - - - - - - -
21/01:00am - W 5 6 1008.0 - - - - - - - - -
21/12:30am - W 5 7 1008.4 - - - - - - - - -
21/12:00am - NW 2 4 1008.4 - - - - - - - - -
 
Date/Time
EST
Temp
°C
Wind Pressure Rain since
9am
mm
Weather Cloud Vis
km
Sea
Height
m
Swell
Dir  Spd
kts
Gust
kts
hPa Trend Height
m
Period
s
Dir
20/11:30pm - N 3 6 1008.3 - - - - - - - - -
20/11:00pm - NW 4 7 1008.6 - - - - - - - - -
20/10:30pm - NW 2 5 1009.1 - - - - - - - - -
20/10:00pm - NNW 3 5 1009.1 - - - - - - - - -
20/09:30pm - N 5 6 1008.8 - - - - - - - - -
20/09:00pm - N 5 7 1008.3 - - - - - - - - -
20/08:30pm - N 3 6 1008.4 - - - - - - - - -
20/08:00pm - N 5 8 1008.1 - - - - - - - - -
20/07:30pm - N 5 6 1007.8 - - - - - - - - -
20/07:00pm - NNE 5 7 1007.4 - - - - - - - - -
20/06:30pm - NE 5 7 1007.1 - - - - - - - - -
20/06:00pm - NNE 6 7 1006.7 - - - - - - - - -
20/05:30pm - NE 6 8 1006.5 - - - - - - - - -
20/05:00pm - ENE 7 9 1006.0 - - - - - - - - -
20/04:30pm - NE 8 10 1005.9 - - - - - - - - -
20/04:00pm - ENE 7 10 1006.1 - - - - - - - - -
20/03:30pm - ENE 7 9 1006.3 - - - - - - - - -
20/03:00pm - E 7 9 1006.5 - - - - - - - - -
20/02:30pm - E 8 10 1006.6 - - - - - - - - -
20/02:00pm - E 9 10 1007.0 - - - - - - - - -
20/01:30pm - ENE 6 8 1007.4 - - - - - - - - -
20/01:00pm - ENE 5 7 1007.9 - - - - - - - - -
20/12:30pm - ENE 4 5 1008.2 - - - - - - - - -
20/12:00pm - NNE 1 2 1008.6 - - - - - - - - -
20/11:30am - CALM 0 0 1009.0 - - - - - - - - -
20/11:00am - W 1 2 1009.3 - - - - - - - - -
20/10:30am - W 3 5 1009.6 - - - - - - - - -
20/10:00am - WSW 6 7 1010.0 - - - - - - - - -
20/09:30am - WSW 6 7 1010.1 - - - - - - - - -
20/09:00am - WSW 7 9 1010.2 - - - - - - - - -
20/08:30am - WSW 8 9 1010.1 - - - - - - - - -
20/08:00am - W 10 12 1009.8 - - - - - - - - -
20/07:30am - W 7 9 1009.4 - - - - - - - - -
20/07:00am - NNW 3 4 1009.0 - - - - - - - - -
20/06:30am - CALM 0 0 1008.6 - - - - - - - - -
20/06:00am - NNE 2 3 1008.1 - - - - - - - - -
20/05:30am - NE 3 4 1007.8 - - - - - - - - -
20/05:00am - NNE 2 3 1007.3 - - - - - - - - -
20/04:30am - NNE 2 3 1006.9 - - - - - - - - -
20/04:00am - NE 1 3 1006.9 - - - - - - - - -
20/03:30am - NE 3 4 1006.9 - - - - - - - - -
20/03:00am - N 3 4 1007.0 - - - - - - - - -
20/02:30am - NNE 1 3 1007.0 - - - - - - - - -
20/02:00am - CALM 0 0 1007.1 - - - - - - - - -
20/01:30am - CALM 0 0 1007.3 - - - - - - - - -
20/01:00am - CALM 0 0 1007.6 - - - - - - - - -
20/12:30am - ENE 1 4 1007.9 - - - - - - - - -
20/12:00am - ENE 2 3 1008.3 - - - - - - - - -
 
Date/Time
EST
Temp
°C
Wind Pressure Rain since
9am
mm
Weather Cloud Vis
km
Sea
Height
m
Swell
Dir  Spd
kts
Gust
kts
hPa Trend Height
m
Period
s
Dir
19/11:30pm - NE 2 3 1008.8 - - - - - - - - -
19/11:00pm - E 3 4 1009.1 - - - - - - - - -
19/10:30pm - ENE 2 4 1009.2 - - - - - - - - -
19/10:00pm - NE 3 4 1009.0 - - - - - - - - -
19/09:30pm - NE 4 5 1008.7 - - - - - - - - -
19/09:00pm - ENE 4 5 1008.6 - - - - - - - - -
19/08:30pm - E 4 5 1008.7 - - - - - - - - -

Other Formats:

Comma delimited format used in spreadsheet applications
http://www.bom.gov.au/fwo/IDQ60701/IDQ60701.94284.axf

JavaScript Object Notation format (JSON) in row-major order
http://www.bom.gov.au/fwo/IDQ60701/IDQ60701.94284.json